Map

Track Data

SID SEASON NUMBER BASIN SUBBASIN NAME ISO_TIME NATURE LAT LON WMO_WIND WMO_PRES WMO_AGENCY TRACK_TYPE DIST2LAND LANDFALL IFLAG USA_AGENCY USA_ATCF_ID USA_LAT USA_LON USA_RECORD USA_STATUS USA_WIND USA_PRES USA_SSHS USA_R34_NE USA_R34_SE USA_R34_SW USA_R34_NW USA_R50_NE USA_R50_SE USA_R50_SW USA_R50_NW USA_R64_NE USA_R64_SE USA_R64_SW USA_R64_NW USA_POCI USA_ROCI USA_RMW USA_EYE TOKYO_LAT TOKYO_LON TOKYO_GRADE TOKYO_WIND TOKYO_PRES TOKYO_R50_DIR TOKYO_R50_LONG TOKYO_R50_SHORT TOKYO_R30_DIR TOKYO_R30_LONG TOKYO_R30_SHORT TOKYO_LAND CMA_LAT CMA_LON CMA_CAT CMA_WIND CMA_PRES HKO_LAT HKO_LON HKO_CAT HKO_WIND HKO_PRES NEWDELHI_LAT NEWDELHI_LON NEWDELHI_GRADE NEWDELHI_WIND NEWDELHI_PRES NEWDELHI_CI NEWDELHI_DP NEWDELHI_POCI REUNION_LAT REUNION_LON REUNION_TYPE REUNION_WIND REUNION_PRES REUNION_TNUM REUNION_CI REUNION_RMW REUNION_R34_NE REUNION_R34_SE REUNION_R34_SW REUNION_R34_NW REUNION_R50_NE REUNION_R50_SE REUNION_R50_SW REUNION_R50_NW REUNION_R64_NE REUNION_R64_SE REUNION_R64_SW REUNION_R64_NW BOM_LAT BOM_LON BOM_TYPE BOM_WIND BOM_PRES BOM_TNUM BOM_CI BOM_RMW BOM_R34_NE BOM_R34_SE BOM_R34_SW BOM_R34_NW BOM_R50_NE BOM_R50_SE BOM_R50_SW BOM_R50_NW BOM_R64_NE BOM_R64_SE BOM_R64_SW BOM_R64_NW BOM_ROCI BOM_POCI BOM_EYE BOM_POS_METHOD BOM_PRES_METHOD NADI_LAT NADI_LON NADI_CAT NADI_WIND NADI_PRES WELLINGTON_LAT WELLINGTON_LON WELLINGTON_WIND WELLINGTON_PRES DS824_LAT DS824_LON DS824_STAGE DS824_WIND DS824_PRES TD9636_LAT TD9636_LON TD9636_STAGE TD9636_WIND TD9636_PRES TD9635_LAT TD9635_LON TD9635_WIND TD9635_PRES TD9635_ROCI NEUMANN_LAT NEUMANN_LON NEUMANN_CLASS NEUMANN_WIND NEUMANN_PRES MLC_LAT MLC_LON MLC_CLASS MLC_WIND MLC_PRES USA_GUST BOM_GUST BOM_GUST_PER REUNION_GUST REUNION_GUST_PER USA_SEAHGT USA_SEARAD_NE USA_SEARAD_SE USA_SEARAD_SW USA_SEARAD_NW STORM_SPEED STORM_DIR
1947032S12065 1947 10 SI MM NOT_NAMED 1947-02-01 06:00:00 NR -12.0000 64.6000 reunion main 1168 1152 _____O________ -1 -12.0000 64.6000 99 9.90000 3 200
1947032S12065 1947 10 SI MM NOT_NAMED 1947-02-01 09:00:00 NR -12.1533 64.5469 main 1143 1135 _____P________ -1 -12.1533 64.5469 99 3 199
1947032S12065 1947 10 SI MM NOT_NAMED 1947-02-01 12:00:00 NR -12.3063 64.4941 main 1135 1110 _____P________ -1 -12.3063 64.4941 99 3 199
1947032S12065 1947 10 SI MM NOT_NAMED 1947-02-01 15:00:00 NR -12.4586 64.4419 main 1110 1102 _____P________ -1 -12.4586 64.4419 99 3 199
1947032S12065 1947 10 SI MM NOT_NAMED 1947-02-01 18:00:00 NR -12.6100 64.3905 main 1102 1078 _____P________ -1 -12.6100 64.3905 99 3 198
1947032S12065 1947 10 SI MM NOT_NAMED 1947-02-01 21:00:00 NR -12.7602 64.3403 main 1078 1069 _____P________ -1 -12.7602 64.3403 99 3 198
1947032S12065 1947 10 SI MM NOT_NAMED 1947-02-02 00:00:00 NR -12.9088 64.2916 main 1069 1053 _____P________ -1 -12.9088 64.2916 99 3 199
1947032S12065 1947 10 SI MM NOT_NAMED 1947-02-02 03:00:00 NR -13.0555 64.2447 main 1045 1036 _____P________ -1 -13.0555 64.2447 99 3 197
1947032S12065 1947 10 SI MM NOT_NAMED 1947-02-02 06:00:00 NR -13.2000 64.2000 reunion main 1036 1035 _____O________ -1 -13.2000 64.2000 99 9.90000 7 119
1947032S12065 1947 10 SI MM NOT_NAMED 1947-02-02 09:00:00 NR -13.3954 64.8851 main 1072 1071 _____P________ -1 -13.3427 64.1574 99 11 111
1947032S12065 1947 10 SI MM NOT_NAMED 1947-02-02 12:00:00 NR -13.6002 65.2727 main 1087 1080 _____P________ -1 -13.4869 64.1157 99 7 126
1947032S12065 1947 10 SI MM NOT_NAMED 1947-02-02 15:00:00 NR -13.8191 65.4870 main 1088 1081 _____P________ -1 -13.6363 64.0735 99 6 146
1947032S12065 1947 10 SI MM NOT_NAMED 1947-02-02 18:00:00 NR -14.0549 65.5899 main 1074 1052 _____P________ -1 -13.7950 64.0291 99 5 185
1947032S12065 1947 10 SI MM NOT_NAMED 1947-02-02 21:00:00 NR -14.2753 65.4522 main 1052 1021 _____P________ -1 -13.9668 63.9812 99 5 211
1947032S12065 1947 10 SI MM NOT_NAMED 1947-02-03 00:00:00 NR -14.5130 65.3086 main 1021 992 _____P________ -1 -14.1556 63.9280 99 6 210
1947032S12065 1947 10 SI MM NOT_NAMED 1947-02-03 03:00:00 NR -14.7705 65.1582 main 992 961 _____P________ -1 -14.3654 63.8682 99 6 209
1947032S12065 1947 10 SI MM NOT_NAMED 1947-02-03 06:00:00 NR -15.0500 65.0000 reunion main 961 924 _____O________ -1 -14.6000 63.8000 99 9.90000 7 208
1947032S12065 1947 10 SI MM NOT_NAMED 1947-02-03 09:00:00 NR -15.3629 64.8249 main 917 889 _____P________ -1 -14.8655 63.7187 99 7 208
1947032S12065 1947 10 SI MM NOT_NAMED 1947-02-03 12:00:00 NR -15.6999 64.6405 main 880 852 _____P________ -1 -15.1558 63.6289 99 8 207
1947032S12065 1947 10 SI MM NOT_NAMED 1947-02-03 15:00:00 NR -16.0553 64.4496 main 837 810 _____P________ -1 -15.4670 63.5322 99 8 207
1947032S12065 1947 10 SI MM NOT_NAMED 1947-02-03 18:00:00 NR -16.4229 64.2551 main 810 769 _____P________ -1 -15.7953 63.4301 99 8 207
1947032S12065 1947 10 SI MM NOT_NAMED 1947-02-03 21:00:00 NR -16.7971 64.0599 main 769 729 _____P________ -1 -16.1366 63.3243 99 8 206
1947032S12065 1947 10 SI MM NOT_NAMED 1947-02-04 00:00:00 NR -17.1719 63.8669 main 729 695 _____P________ -1 -16.4871 63.2163 99 8 206
1947032S12065 1947 10 SI MM NOT_NAMED 1947-02-04 03:00:00 NR -17.5415 63.6793 main 695 656 _____P________ -1 -16.8428 63.1076 99 8 206
1947032S12065 1947 10 SI MM NOT_NAMED 1947-02-04 06:00:00 NR -17.9000 63.5000 reunion main 656 633 _____O________ -1 -17.2000 63.0000 99 9.90000 8 205
1947032S12065 1947 10 SI MM NOT_NAMED 1947-02-04 09:00:00 NR -18.2291 63.3477 main 623 601 _____P________ -1 -17.5465 62.8869 99 7 203
1947032S12065 1947 10 SI MM NOT_NAMED 1947-02-04 12:00:00 NR -18.5503 63.2040 main 597 580 _____P________ -1 -17.8979 62.7721 99 7 203
1947032S12065 1947 10 SI MM NOT_NAMED 1947-02-04 15:00:00 NR -18.8645 63.0659 main 576 547 _____P________ -1 -18.2522 62.6584 99 7 203
1947032S12065 1947 10 SI MM NOT_NAMED 1947-02-04 18:00:00 NR -19.1722 62.9304 main 547 530 _____P________ -1 -18.6076 62.5484 99 7 203
1947032S12065 1947 10 SI MM NOT_NAMED 1947-02-04 21:00:00 NR -19.4740 62.7941 main 530 514 _____P________ -1 -18.9620 62.4449 99 7 204
1947032S12065 1947 10 SI MM NOT_NAMED 1947-02-05 00:00:00 NR -19.7705 62.6541 main 514 491 _____P________ -1 -19.3136 62.3504 99 7 205
1947032S12065 1947 10 SI MM NOT_NAMED 1947-02-05 03:00:00 NR -20.0623 62.5071 main 490 479 _____P________ -1 -19.6602 62.2679 99 6 206
1947032S12065 1947 10 SI MM NOT_NAMED 1947-02-05 06:00:00 NR -20.3500 62.3500 reunion main 479 459 _____O________ -1 -20.0000 62.2000 99 9.90000 7 210
1947032S12065 1947 10 SI MM NOT_NAMED 1947-02-05 09:00:00 NR -20.6391 62.1504 main 459 440 _____P________ -1 -20.3168 62.1414 99 7 214
1947032S12065 1947 10 SI MM NOT_NAMED 1947-02-05 12:00:00 NR -20.9232 61.9388 main 431 417 _____P________ -1 -20.6261 62.0961 99 7 215
1947032S12065 1947 10 SI MM NOT_NAMED 1947-02-05 15:00:00 NR -21.2027 61.7211 main 417 403 _____P________ -1 -20.9310 62.0641 99 7 216
1947032S12065 1947 10 SI MM NOT_NAMED 1947-02-05 18:00:00 NR -21.4781 61.5031 main 407 395 _____P________ -1 -21.2348 62.0452 99 7 216
1947032S12065 1947 10 SI MM NOT_NAMED 1947-02-05 21:00:00 NR -21.7498 61.2909 main 395 385 _____P________ -1 -21.5404 62.0394 99 7 215
1947032S12065 1947 10 SI MM NOT_NAMED 1947-02-06 00:00:00 NR -22.0186 61.0906 main 390 381 _____P________ -1 -21.8511 62.0467 99 6 213
1947032S12065 1947 10 SI MM NOT_NAMED 1947-02-06 03:00:00 NR -22.2851 60.9083 main 387 384 _____P________ -1 -22.1699 62.0669 99 6 211
1947032S12065 1947 10 SI MM NOT_NAMED 1947-02-06 06:00:00 NR -22.5500 60.7500 reunion main 390 389 _____O________ -1 -22.5000 62.1000 99 9.90000 5 187
1947032S12065 1947 10 SI MM NOT_NAMED 1947-02-06 09:00:00 NR -22.8262 60.8368 main 410 410 _____P________ -1 -22.8670 62.1308 99 7 153
1947032S12065 1947 10 SI MM NOT_NAMED 1947-02-06 12:00:00 NR -23.1403 61.0678 main 455 455 _____P________ -1 -23.2464 62.1751 99 9 138
1947032S12065 1947 10 SI MM NOT_NAMED 1947-02-06 15:00:00 NR -23.5213 61.5104 main 515 515 _____P________ -1 -23.6332 62.2324 99 14 128
1947032S12065 1947 10 SI MM NOT_NAMED 1947-02-06 18:00:00 NR -24.0222 62.3024 main 613 613 _____P________ -1 -24.0222 62.3024 99 12 138
1947032S12065 1947 10 SI MM NOT_NAMED 1947-02-06 21:00:00 NR -24.4085 62.3846 main 650 650 _____P________ -1 -24.4085 62.3846 99 8 168
1947032S12065 1947 10 SI MM NOT_NAMED 1947-02-07 00:00:00 NR -24.7870 62.4785 main 687 687 _____P________ -1 -24.7870 62.4785 99 8 166
1947032S12065 1947 10 SI MM NOT_NAMED 1947-02-07 03:00:00 NR -25.1525 62.5839 main 726 726 _____P________ -1 -25.1525 62.5839 99 7 164
1947032S12065 1947 10 SI MM NOT_NAMED 1947-02-07 06:00:00 NR -25.5000 62.7000 reunion main 757 757 _____O________ -1 -25.5000 62.7000 99 9.90000 7 162
1947032S12065 1947 10 SI MM NOT_NAMED 1947-02-07 09:00:00 NR -25.8372 62.8292 main 788 788 _____P________ -1 -25.8372 62.8292 99 7 160
1947032S12065 1947 10 SI MM NOT_NAMED 1947-02-07 12:00:00 NR -26.1605 62.9719 main 835 835 _____P________ -1 -26.1605 62.9719 99 7 157
1947032S12065 1947 10 SI MM NOT_NAMED 1947-02-07 15:00:00 NR -26.4680 63.1246 main 867 867 _____P________ -1 -26.4680 63.1246 99 7 155
1947032S12065 1947 10 SI MM NOT_NAMED 1947-02-07 18:00:00 NR -26.7578 63.2832 main 905 905 _____P________ -1 -26.7578 63.2832 99 6 153
1947032S12065 1947 10 SI MM NOT_NAMED 1947-02-07 21:00:00 NR -27.0278 63.4441 main 929 929 _____P________ -1 -27.0278 63.4441 99 6 151
1947032S12065 1947 10 SI MM NOT_NAMED 1947-02-08 00:00:00 NR -27.2762 63.6032 main 967 967 _____P________ -1 -27.2762 63.6032 99 6 150
1947032S12065 1947 10 SI MM NOT_NAMED 1947-02-08 03:00:00 NR -27.5009 63.7565 main 997 997 _____P________ -1 -27.5009 63.7565 99 5 148
1947032S12065 1947 10 SI MM NOT_NAMED 1947-02-08 06:00:00 NR -27.7000 63.9000 reunion main 1020 1020 _____O________ -1 -27.7000 63.9000 99 9.90000 4 147
1947032S12065 1947 10 SI MM NOT_NAMED 1947-02-08 09:00:00 NR -27.8725 64.0306 main 1044 1044 _____P________ -1 -27.8725 64.0306 99 4 145
1947032S12065 1947 10 SI MM NOT_NAMED 1947-02-08 12:00:00 NR -28.0210 64.1491 main 1059 1059 _____P________ -1 -28.0210 64.1491 99 3 144
1947032S12065 1947 10 SI MM NOT_NAMED 1947-02-08 15:00:00 NR -28.1490 64.2570 main 1080 1080 _____P________ -1 -28.1490 64.2570 99 3 143
1947032S12065 1947 10 SI MM NOT_NAMED 1947-02-08 18:00:00 NR -28.2598 64.3562 main 1103 1103 _____P________ -1 -28.2598 64.3562 99 3 141
1947032S12065 1947 10 SI MM NOT_NAMED 1947-02-08 21:00:00 NR -28.3568 64.4483 main 1112 1112 _____P________ -1 -28.3568 64.4483 99 2 139
1947032S12065 1947 10 SI MM NOT_NAMED 1947-02-09 00:00:00 NR -28.4436 64.5351 main 1118 1118 _____P________ -1 -28.4436 64.5351 99 2 138
1947032S12065 1947 10 SI MM NOT_NAMED 1947-02-09 03:00:00 NR -28.5235 64.6184 main 1133 1133 _____P________ -1 -28.5235 64.6184 99 2 137
1947032S12065 1947 10 SI MM NOT_NAMED 1947-02-09 06:00:00 NR -28.6000 64.7000 reunion main 1148 _____O________ -1 -28.6000 64.7000 99 9.90000 2 137

About IBTrACS Database

This database is a web-friendly format of International Best Track Archive for Climate Stewardship (IBTrACS), a global best track data archive curated by NOAA dating back to 1842.

Updated: 2021-12-03